El Paso de Robles, CA

9:07 AM PDT en Septiembre 21, 2014 (GMT -0700)
Montebello Oaks | Change Station
CLOSE
Current Station
Estación meteorológica personal
Location: Paso Robles, CA
Altura: 869 ft
Estaciones meteorológicas cercanas

Alt 869 ft 35.64 °N, 120.67 °W | Updated 10 minutes ago

Nublado
Nublado
60.9 ° F
Sensación térmica 60.9 ° F
N
0.0
Viento Variable Viento desde NNE
Gusts 4.0 mph

Hoy
Alta -- | Baja -- ° F
--% Posibilidad de precipitaciones
Ayer
Alta -- | Baja -- ° F
Precip. -- pul
6:49 AM 7:00 PM
Creciente menguante, 6% visible
Presión 30.01 pul
Visibilidad 10.0 Millas
Nubes Nublado 800 ft
Punto de rocío 58 ° F
Humedad 89%
Precipitaciones 0.00 pul
Espesor de la nieve 1 in , 1 in , 0 in
UV 1 de una escala de 12
Polen 5.80 de una escala de 12
Calidad del aire No disponible.
Flu Activity No disponible.
METAR KPRB 211553Z AUTO 34003KT 10SM OVC008 16/13 A3002 RMK AO2 SLP161 T01610133 TSNO $

More Conditions Fewer Conditions

Presión 30.01 pul
Visibilidad 10.0 Millas
Nubes Nublado 800 ft
Punto de rocío 58 ° F
Humedad 89%
Precipitaciones 0.00 pul
Espesor de la nieve 1 in , 1 in , 0 in
UV 1 de una escala de 12
Polen 5.80 de una escala de 12
Calidad del aire No disponible.
Flu Activity No disponible.
METAR KPRB 211553Z AUTO 34003KT 10SM OVC008 16/13 A3002 RMK AO2 SLP161 T01610133 TSNO $

More Conditions Fewer Conditions

10-Day Weather Forecast

Almanac

Astronomía

Sep. 21, 2014 Salida Puesta
Hora real 6:49 AM PDT 7:00 PM PDT
Crepúsculo civil 6:24 AM PDT 7:26 PM PDT
Crepúsculo náutico 5:54 AM PDT 7:55 PM PDT
Crepúsculo astronómico 5:24 AM PDT 8:26 PM PDT
Luna 4:32 AM PDT 5:36 PM PDT
Horas de luz 13h 01m
Horas de luz
12h 10m
Tomorrow will be 2m 14s shorter.
Creciente menguante, 6% of the Moon is Illuminated
Hoy
Creciente menguante
Sep 24
Nueva
Oct 1
Cuarto creciente
Oct 8
Luna llena
Oct 15
Cuarto menguante

Extremos de hoy

Máximos del estado Bajos del estado

Community

WunderPhotos

Upload Photos

1,755,181 ¡fotos cargadas!

Nearby

Grosos de nieve

Estación Profundido Altura
Monitor Pass 1 in 8350 ft
Burnside Lake 1 in 8139 ft
Forestdale Creek 0 in 8029 ft
Sonora Pass 0 in 8800 ft
Heavenly Valley 0 in 8850 ft

Actividad de terremotos

Ciudad Distance Mag. Tiempo y dato
Corcoran, California 64 Millas 2.9 3:59 PM PDT
2014-09-18
Magnitud mínima muestra es 2,5.

Temperaturas de aguas costeras

Lugar Temperatura
Sin partes meteorológicos de las estaciones

Estaciones meteorológicas cercanas